Country
Station

 

Weather  for  Buenaventura  -  Colombia    Colombia

  
29 °C (84 °F)
    
 
 

Current METAR for Buenaventura is :

SKBU 141800Z VRB03KT 8000 VCSH SCT020 BKN040 29/25 A2974 RMK VCSHA/E

 

This is a report for Buenaventura - Colombia.
 
The report was made 449 hours and 5 minutes ago, at 18:00 UTC .
The wind was blowing at a speed of 1.5 meters per second (3.5 miles per hour) from variable directions.
 
The temperature was 29 °C (84 °F), with a dew-point at 25 °C (77 °F).
The temperature felt like 34 °C (94 °F).
 
The atmospheric pressure was 1007 hPa (29.74 inHg).
The relative humidity was 79.1%.
 
There were scattered clouds at a height of 610 meters (2000 feet) and broken clouds at a height of 1219 meters (4000 feet).
 
The overall visibility was 8.0 kilometers (5.0 miles).
 
Currently showers of in the vicinity.

 
 
 
 

Country :   A   B   C   D   E   F   G   H   I   J   K   L   M   N   O   P   Q   R   S   T   U   V   W   Y   Z

 

Site Info  |  Disclaimer  |  Credits  |  Privacy
Contact us  |  Add to favorites
© 2013-2020 METARs - All rights reserved